createdAt,value
2019-02-22T00:00:34.488Z,3.60
2019-02-22T00:03:07.587Z,6.50
2019-02-22T00:05:38.371Z,11.70
2019-02-22T00:08:09.714Z,8.78
2019-02-22T00:10:39.748Z,8.73
2019-02-22T00:13:09.819Z,5.07
2019-02-22T00:15:40.810Z,9.03
2019-02-22T00:18:11.371Z,5.62
2019-02-22T00:20:44.230Z,2.47
2019-02-22T00:23:13.140Z,3.40
2019-02-22T00:25:45.572Z,3.37
2019-02-22T00:28:14.846Z,4.67
2019-02-22T00:30:46.629Z,4.55
2019-02-22T00:33:17.233Z,6.40
2019-02-22T00:35:46.942Z,3.62
2019-02-22T00:38:18.496Z,7.60
2019-02-22T00:40:49.447Z,7.58
2019-02-22T00:43:21.429Z,4.33
2019-02-22T00:45:54.238Z,7.67
2019-02-22T00:48:36.587Z,2.45
2019-02-22T00:51:09.149Z,6.70
2019-02-22T00:53:40.036Z,3.22
2019-02-22T00:56:10.473Z,2.27
2019-02-22T00:58:39.953Z,4.62
2019-02-22T01:01:10.258Z,3.20
2019-02-22T01:03:40.366Z,2.55
2019-02-22T01:06:10.424Z,1.87
2019-02-22T01:08:39.104Z,6.90
2019-02-22T01:11:07.835Z,3.95
2019-02-22T01:13:36.889Z,4.58
2019-02-22T01:16:06.729Z,3.70
2019-02-22T01:18:35.337Z,4.35
2019-02-22T01:21:04.050Z,4.58
2019-02-22T01:23:33.105Z,3.47
2019-02-22T01:26:02.159Z,2.70
2019-02-22T01:28:31.212Z,6.03
2019-02-22T01:31:00.493Z,4.58
2019-02-22T01:33:29.207Z,5.47
2019-02-22T01:35:58.097Z,6.28
2019-02-22T01:38:26.816Z,5.58
2019-02-22T01:40:55.699Z,4.85
2019-02-22T01:43:24.576Z,5.25
2019-02-22T01:45:53.416Z,2.58
2019-02-22T01:48:22.291Z,3.02
2019-02-22T01:50:51.354Z,3.55
2019-02-22T01:53:20.079Z,2.27
2019-02-22T01:55:48.805Z,3.55
2019-02-22T01:58:17.678Z,5.10
2019-02-22T02:00:46.784Z,2.35
2019-02-22T02:03:15.658Z,4.72
2019-02-22T02:05:44.787Z,3.70
2019-02-22T02:08:13.691Z,3.33
2019-02-22T02:10:53.415Z,4.47
2019-02-22T02:13:13.216Z,3.55
2019-02-22T02:15:41.965Z,3.58
2019-02-22T02:18:10.917Z,1.85
2019-02-22T02:20:40.120Z,4.12
2019-02-22T02:23:08.915Z,2.42
2019-02-22T02:25:37.746Z,1.80
2019-02-22T02:28:06.509Z,1.62
2019-02-22T02:30:35.294Z,3.80
2019-02-22T02:33:04.315Z,3.90
2019-02-22T02:35:33.279Z,3.98
2019-02-22T02:38:02.214Z,3.90
2019-02-22T02:40:30.935Z,2.72
2019-02-22T02:42:59.875Z,3.87
2019-02-22T02:45:28.596Z,2.58
2019-02-22T02:47:57.426Z,3.83
2019-02-22T02:50:26.366Z,3.90
2019-02-22T02:52:55.304Z,4.05
2019-02-22T02:55:25.416Z,1.77
2019-02-22T02:57:54.016Z,3.00
2019-02-22T03:00:22.674Z,3.72
2019-02-22T03:02:51.556Z,1.40
2019-02-22T03:05:22.244Z,3.08
2019-02-22T03:07:50.894Z,1.45
2019-02-22T03:10:19.549Z,2.33
2019-02-22T03:12:48.466Z,1.98
2019-02-22T03:15:19.728Z,2.90
2019-02-22T03:17:49.593Z,4.30
2019-02-22T03:20:18.377Z,3.22
2019-02-22T03:22:47.498Z,1.32
2019-02-22T03:25:16.465Z,1.00
2019-02-22T03:27:45.309Z,2.75
2019-02-22T03:30:14.153Z,3.33
2019-02-22T03:32:42.749Z,14.30
2019-02-22T03:35:11.478Z,3.37
2019-02-22T03:37:40.409Z,6.25
2019-02-22T03:40:09.224Z,6.95
2019-02-22T03:42:37.955Z,5.90
2019-02-22T03:45:07.401Z,6.75
2019-02-22T03:47:36.130Z,8.83
2019-02-22T03:50:06.329Z,1.98
2019-02-22T03:52:39.214Z,5.10
2019-02-22T03:55:08.667Z,4.60
2019-02-22T03:57:37.643Z,5.00
2019-02-22T04:00:07.957Z,2.90
2019-02-22T04:02:36.727Z,2.77
2019-02-22T04:05:06.881Z,4.75
2019-02-22T04:07:35.567Z,4.03
2019-02-22T04:10:05.149Z,4.05
2019-02-22T04:12:34.159Z,4.37
2019-02-22T04:15:02.868Z,2.22
2019-02-22T04:17:33.067Z,2.45
2019-02-22T04:20:02.178Z,1.70
2019-02-22T04:22:31.962Z,2.60
2019-02-22T04:25:00.682Z,2.90
2019-02-22T04:27:29.369Z,3.22
2019-02-22T04:29:58.245Z,3.30
2019-02-22T04:32:27.077Z,3.20
2019-02-22T04:34:56.017Z,4.08
2019-02-22T04:37:24.853Z,2.30
2019-02-22T04:39:53.475Z,3.17
2019-02-22T04:42:22.164Z,1.62
2019-02-22T04:44:51.080Z,1.30
2019-02-22T04:47:19.935Z,2.87
2019-02-22T04:49:48.911Z,3.45
2019-02-22T04:52:17.937Z,2.27
2019-02-22T04:54:47.947Z,3.25
2019-02-22T04:57:16.894Z,1.50
2019-02-22T04:59:45.727Z,4.53
2019-02-22T05:02:14.709Z,3.98
2019-02-22T05:04:43.321Z,3.33
2019-02-22T05:07:12.024Z,1.42
2019-02-22T05:09:40.855Z,3.45
2019-02-22T05:12:11.045Z,2.50
2019-02-22T05:14:40.403Z,3.65
2019-02-22T05:17:09.329Z,3.80
2019-02-22T05:19:37.925Z,4.45
2019-02-22T05:22:06.970Z,2.67
2019-02-22T05:24:35.925Z,4.00
2019-02-22T05:27:04.612Z,2.00
2019-02-22T05:29:33.577Z,3.15
2019-02-22T05:32:02.344Z,5.03
2019-02-22T05:34:31.024Z,3.30
2019-02-22T05:37:00.006Z,3.50
2019-02-22T05:39:28.826Z,2.92
2019-02-22T05:41:57.667Z,3.60
2019-02-22T05:44:26.412Z,2.47
2019-02-22T05:47:00.315Z,2.65
2019-02-22T05:49:25.668Z,2.55
2019-02-22T05:51:54.358Z,4.60
2019-02-22T05:54:23.406Z,4.10
2019-02-22T05:56:54.939Z,4.17
2019-02-22T05:59:22.405Z,3.98
2019-02-22T06:01:51.035Z,3.47
2019-02-22T06:04:20.033Z,4.17
2019-02-22T06:06:48.701Z,2.85
2019-02-22T06:09:17.689Z,2.05
2019-02-22T06:11:46.279Z,4.42
2019-02-22T06:14:15.162Z,3.12
2019-02-22T06:16:47.406Z,2.95
2019-02-22T06:21:45.136Z,8.18
2019-02-22T06:24:13.677Z,2.12
2019-02-22T06:26:42.505Z,15.85
2019-02-22T06:29:11.565Z,8.48
2019-02-22T06:31:40.381Z,12.18
2019-02-22T06:34:10.290Z,6.60
2019-02-22T06:36:38.977Z,16.17
2019-02-22T06:39:07.662Z,35.40
2019-02-22T06:41:36.501Z,4.70
2019-02-22T06:44:05.153Z,11.63
2019-02-22T06:46:34.136Z,2.70
2019-02-22T06:49:03.144Z,3.50
2019-02-22T06:51:31.975Z,11.43
2019-02-22T06:54:00.829Z,10.68
2019-02-22T06:56:29.575Z,5.47
2019-02-22T06:58:58.487Z,13.45
2019-02-22T07:01:27.448Z,2.98
2019-02-22T07:03:56.161Z,13.72
2019-02-22T07:06:25.110Z,4.85
2019-02-22T07:08:53.916Z,16.05
2019-02-22T07:11:27.119Z,2.70
2019-02-22T07:13:55.786Z,10.05
2019-02-22T07:16:24.401Z,22.87
2019-02-22T07:18:53.324Z,4.72
2019-02-22T07:21:22.126Z,4.05
2019-02-22T07:23:51.186Z,26.55
2019-02-22T07:26:20.255Z,5.22
2019-02-22T07:28:49.464Z,4.62
2019-02-22T07:31:18.154Z,2.47
2019-02-22T07:33:47.110Z,3.75
2019-02-22T07:36:16.028Z,6.03
2019-02-22T07:38:44.925Z,2.70
2019-02-22T07:41:13.862Z,2.70
2019-02-22T07:43:42.579Z,7.78
2019-02-22T07:46:11.295Z,2.50
2019-02-22T07:48:40.070Z,2.60
2019-02-22T07:51:08.776Z,1.40
2019-02-22T07:53:37.615Z,3.10
2019-02-22T07:56:06.449Z,2.12
2019-02-22T07:58:35.606Z,2.80
2019-02-22T08:01:04.646Z,1.87
2019-02-22T08:03:33.432Z,4.80
2019-02-22T08:06:02.315Z,3.17
2019-02-22T08:08:31.133Z,2.30
2019-02-22T08:10:59.745Z,4.80
2019-02-22T08:13:28.466Z,3.10
2019-02-22T08:15:57.308Z,2.83
2019-02-22T08:18:27.570Z,2.80
2019-02-22T08:20:56.425Z,3.87
2019-02-22T08:23:27.839Z,1.25
2019-02-22T08:25:57.004Z,2.10
2019-02-22T08:28:25.958Z,1.47
2019-02-22T08:30:54.887Z,2.92
2019-02-22T08:33:23.624Z,3.25
2019-02-22T08:35:53.518Z,2.35
2019-02-22T08:38:22.390Z,1.57
2019-02-22T08:40:51.105Z,1.20
2019-02-22T08:43:30.767Z,2.20
2019-02-22T08:45:50.629Z,1.42
2019-02-22T08:48:19.336Z,2.58
2019-02-22T08:50:48.207Z,1.87
2019-02-22T08:53:17.254Z,1.75
2019-02-22T08:55:46.063Z,3.12
2019-02-22T08:58:14.784Z,1.75
2019-02-22T09:00:43.385Z,2.98
2019-02-22T09:03:12.127Z,3.22
2019-02-22T09:05:41.138Z,2.72
2019-02-22T09:08:10.012Z,3.95
2019-02-22T09:10:38.998Z,2.47
2019-02-22T09:13:07.745Z,1.35
2019-02-22T09:15:36.408Z,3.42
2019-02-22T09:18:05.372Z,2.65
2019-02-22T09:20:34.105Z,1.70
2019-02-22T09:23:02.947Z,3.22
2019-02-22T09:25:31.656Z,1.37
2019-02-22T09:28:00.404Z,5.33
2019-02-22T09:30:29.126Z,4.80
2019-02-22T09:32:58.156Z,7.15
2019-02-22T09:35:27.116Z,3.67
2019-02-22T09:37:55.739Z,1.22
2019-02-22T09:40:24.666Z,2.40
2019-02-22T09:42:53.284Z,2.92
2019-02-22T09:45:24.394Z,3.40
2019-02-22T09:47:52.755Z,2.80
2019-02-22T09:50:21.425Z,2.02
2019-02-22T09:52:50.359Z,5.30
2019-02-22T09:55:19.087Z,2.08
2019-02-22T09:57:47.874Z,1.95
2019-02-22T10:00:16.635Z,3.12
2019-02-22T10:02:45.458Z,2.72
2019-02-22T10:05:14.066Z,3.52
2019-02-22T10:07:43.115Z,3.83
2019-02-22T10:10:12.129Z,1.98
2019-02-22T10:12:40.951Z,6.85
2019-02-22T10:15:10.267Z,5.25
2019-02-22T10:17:39.188Z,2.80
2019-02-22T10:20:09.377Z,5.15
2019-02-22T10:22:39.067Z,5.55
2019-02-22T10:25:08.894Z,3.70
2019-02-22T10:27:37.715Z,3.60
2019-02-22T10:30:10.958Z,6.25
2019-02-22T10:32:40.108Z,16.30
2019-02-22T10:35:08.835Z,30.43
2019-02-22T10:37:37.557Z,21.60
2019-02-22T10:40:07.817Z,7.58
2019-02-22T10:42:36.964Z,3.62
2019-02-22T10:45:07.549Z,4.85
2019-02-22T10:47:36.385Z,5.97
2019-02-22T10:50:05.936Z,3.83
2019-02-22T10:52:35.048Z,2.00
2019-02-22T10:55:04.969Z,20.30
2019-02-22T10:57:35.015Z,10.63
2019-02-22T11:00:04.584Z,13.03
2019-02-22T11:02:33.555Z,11.05
2019-02-22T11:05:02.166Z,2.45
2019-02-22T11:07:31.586Z,4.60
2019-02-22T11:10:00.411Z,3.40
2019-02-22T11:12:29.097Z,2.05
2019-02-22T11:14:57.988Z,3.05
2019-02-22T11:17:26.868Z,15.28
2019-02-22T11:19:55.796Z,2.85
2019-02-22T11:22:24.700Z,10.50
2019-02-22T11:24:53.567Z,2.98
2019-02-22T11:27:22.180Z,16.57
2019-02-22T11:29:51.113Z,3.90
2019-02-22T11:32:20.067Z,3.40
2019-02-22T11:34:49.078Z,10.88
2019-02-22T11:37:17.714Z,18.52
2019-02-22T11:39:46.559Z,17.57
2019-02-22T11:42:15.548Z,10.18
2019-02-22T11:44:44.594Z,5.97
2019-02-22T11:47:13.582Z,3.60
2019-02-22T11:49:42.095Z,2.50
2019-02-22T11:52:10.934Z,11.90
2019-02-22T11:54:39.543Z,6.03
2019-02-22T11:57:09.353Z,4.50
2019-02-22T11:59:38.273Z,2.72
2019-02-22T12:02:07.184Z,4.85
2019-02-22T12:04:35.956Z,14.45
2019-02-22T12:07:04.680Z,10.78
2019-02-22T12:09:33.346Z,5.78
2019-02-22T12:12:01.919Z,8.68
2019-02-22T12:14:30.970Z,14.07
2019-02-22T12:16:59.798Z,5.30
2019-02-22T12:19:28.409Z,10.03
2019-02-22T12:21:57.563Z,7.85
2019-02-22T12:24:26.461Z,4.35
2019-02-22T12:26:56.544Z,12.37
2019-02-22T12:29:25.475Z,29.15
2019-02-22T12:31:54.620Z,15.35
2019-02-22T12:34:23.408Z,14.35
2019-02-22T12:36:52.370Z,16.07
2019-02-22T12:39:21.287Z,25.17
2019-02-22T12:41:50.256Z,35.90
2019-02-22T12:44:19.228Z,31.77
2019-02-22T12:46:47.933Z,11.45
2019-02-22T12:49:16.824Z,21.45
2019-02-22T12:51:46.056Z,11.60
2019-02-22T12:54:14.791Z,19.60
2019-02-22T12:56:56.558Z,6.60
2019-02-22T12:59:13.927Z,2.27
2019-02-22T13:01:42.721Z,3.00
2019-02-22T13:04:11.661Z,4.50
2019-02-22T13:06:40.797Z,2.87
2019-02-22T13:09:09.845Z,3.25
2019-02-22T13:11:38.894Z,4.58
2019-02-22T13:14:07.495Z,16.30
2019-02-22T13:16:36.325Z,18.17
2019-02-22T13:19:08.099Z,17.27
2019-02-22T13:21:37.103Z,22.07
2019-02-22T13:24:05.790Z,2.33
2019-02-22T13:26:34.573Z,4.00
2019-02-22T13:29:05.030Z,6.65
2019-02-22T13:31:34.155Z,6.33
2019-02-22T13:34:03.090Z,17.35
2019-02-22T13:36:31.805Z,11.33
2019-02-22T13:39:00.555Z,62.33
2019-02-22T13:41:30.678Z,6.80
2019-02-22T13:43:59.606Z,30.82
2019-02-22T13:46:28.219Z,16.20
2019-02-22T13:48:57.154Z,35.35
2019-02-22T13:51:25.832Z,10.72
2019-02-22T13:53:54.585Z,6.50
2019-02-22T13:56:29.596Z,6.15
2019-02-22T13:58:54.036Z,7.58
2019-02-22T14:01:22.973Z,4.45
2019-02-22T14:03:51.951Z,4.45
2019-02-22T14:06:21.157Z,3.83
2019-02-22T14:08:50.026Z,2.40
2019-02-22T14:11:18.614Z,7.05
2019-02-22T14:13:47.625Z,8.85
2019-02-22T14:16:16.505Z,4.58
2019-02-22T14:18:45.044Z,4.70
2019-02-22T14:21:14.150Z,6.17
2019-02-22T14:23:43.106Z,8.88
2019-02-22T14:26:11.827Z,15.38
2019-02-22T14:28:42.587Z,9.48
2019-02-22T14:31:11.228Z,8.88
2019-02-22T14:33:39.894Z,6.97
2019-02-22T14:36:08.858Z,20.37
2019-02-22T14:38:37.706Z,5.58
2019-02-22T14:41:06.785Z,15.08
2019-02-22T14:43:35.948Z,11.00
2019-02-22T14:46:04.585Z,9.98
2019-02-22T14:48:33.153Z,4.50
2019-02-22T14:51:01.771Z,4.25
2019-02-22T14:53:30.373Z,4.55
2019-02-22T14:55:59.830Z,5.25
2019-02-22T14:58:28.804Z,7.42
2019-02-22T15:00:57.755Z,8.20
2019-02-22T15:03:27.584Z,4.87
2019-02-22T15:05:56.409Z,9.05
2019-02-22T15:08:25.070Z,8.95
2019-02-22T15:10:53.677Z,3.92
2019-02-22T15:13:22.395Z,5.78
2019-02-22T15:16:01.801Z,7.95
2019-02-22T15:18:29.038Z,6.80
2019-02-22T15:20:57.926Z,7.60
2019-02-22T15:23:27.010Z,5.80
2019-02-22T15:25:55.739Z,24.80
2019-02-22T15:28:26.370Z,26.70
2019-02-22T15:30:54.834Z,25.77
2019-02-22T15:33:23.733Z,30.30
2019-02-22T15:35:52.580Z,27.07
2019-02-22T15:38:21.918Z,32.45
2019-02-22T15:40:50.614Z,26.90
2019-02-22T15:43:19.425Z,15.55
2019-02-22T15:45:48.241Z,30.32
2019-02-22T15:48:16.985Z,13.25
2019-02-22T15:50:45.738Z,26.90
2019-02-22T15:53:14.414Z,8.98
2019-02-22T15:55:42.964Z,22.40
2019-02-22T15:58:11.743Z,9.88
2019-02-22T16:00:40.770Z,14.15
2019-02-22T16:03:09.739Z,21.80
2019-02-22T16:05:40.387Z,35.95
2019-02-22T16:08:09.152Z,45.35
2019-02-22T16:10:37.790Z,23.52
2019-02-22T16:13:06.606Z,13.58
2019-02-22T16:15:36.351Z,35.50
2019-02-22T16:18:05.119Z,31.97
2019-02-22T16:20:33.861Z,59.35
2019-02-22T16:23:02.419Z,8.73
2019-02-22T16:25:31.081Z,20.77
2019-02-22T16:27:59.985Z,53.28
2019-02-22T16:30:30.650Z,30.43
2019-02-22T16:32:59.360Z,53.65
2019-02-22T16:35:27.924Z,129.53
2019-02-22T16:37:56.926Z,87.33
2019-02-22T16:40:25.486Z,138.55
2019-02-22T16:42:54.145Z,39.00
2019-02-22T16:45:22.746Z,58.65
2019-02-22T16:47:51.329Z,77.05
2019-02-22T16:50:20.154Z,110.78
2019-02-22T16:52:48.976Z,107.72
2019-02-22T16:55:17.646Z,217.35
2019-02-22T16:57:46.417Z,113.32
2019-02-22T17:00:16.010Z,118.75
2019-02-22T17:02:44.736Z,137.05
2019-02-22T17:05:14.787Z,157.75
2019-02-22T17:07:43.348Z,384.95
2019-02-22T17:10:13.317Z,215.90
2019-02-22T17:12:41.929Z,128.05
2019-02-22T17:15:11.541Z,223.90
2019-02-22T17:17:40.242Z,115.67
2019-02-22T17:20:12.705Z,58.75
2019-02-22T17:22:41.494Z,34.88
2019-02-22T17:25:14.494Z,80.38
2019-02-22T17:27:43.254Z,78.22
2019-02-22T17:30:13.110Z,38.28
2019-02-22T17:32:41.704Z,19.90
2019-02-22T17:35:10.382Z,17.17
2019-02-22T17:37:39.081Z,20.70
2019-02-22T17:40:09.445Z,33.73
2019-02-22T17:42:38.110Z,22.37
2019-02-22T17:45:07.049Z,20.37
2019-02-22T17:47:35.869Z,28.65
2019-02-22T17:50:05.479Z,27.75
2019-02-22T17:52:34.098Z,26.12
2019-02-22T17:55:02.820Z,32.03
2019-02-22T17:57:32.036Z,27.35
2019-02-22T18:00:01.028Z,28.80
2019-02-22T18:02:31.282Z,22.17
2019-02-22T18:05:00.444Z,20.20
2019-02-22T18:07:29.099Z,23.10
2019-02-22T18:09:57.766Z,16.55
2019-02-22T18:12:26.626Z,15.85
2019-02-22T18:14:55.338Z,11.53
2019-02-22T18:17:24.095Z,29.12
2019-02-22T18:19:52.746Z,41.58
2019-02-22T18:22:25.767Z,38.95
2019-02-22T18:24:51.984Z,43.02
2019-02-22T18:27:20.748Z,55.05
2019-02-22T18:29:49.632Z,38.20
2019-02-22T18:32:19.351Z,26.62
2019-02-22T18:34:48.259Z,51.98
2019-02-22T18:37:17.050Z,30.95
2019-02-22T18:39:45.692Z,27.52
2019-02-22T18:42:14.309Z,24.43
2019-02-22T18:44:43.066Z,13.15
2019-02-22T18:47:19.024Z,36.53
2019-02-22T18:49:42.079Z,22.52
2019-02-22T18:52:10.856Z,27.02
2019-02-22T18:54:39.593Z,25.80
2019-02-22T18:57:08.736Z,12.82
2019-02-22T18:59:38.635Z,19.45
2019-02-22T19:02:07.309Z,28.57
2019-02-22T19:04:39.923Z,40.17
2019-02-22T19:07:08.654Z,26.30
2019-02-22T19:09:37.286Z,19.75
2019-02-22T19:12:06.122Z,60.20
2019-02-22T19:14:34.763Z,21.12
2019-02-22T19:17:03.387Z,123.20
2019-02-22T19:19:32.056Z,120.53
2019-02-22T19:22:00.657Z,94.32
2019-02-22T19:24:29.645Z,13.22
2019-02-22T19:26:58.284Z,16.20
2019-02-22T19:29:26.946Z,22.32
2019-02-22T19:31:55.657Z,27.07
2019-02-22T19:34:24.386Z,26.73
2019-02-22T19:36:52.985Z,26.65
2019-02-22T19:39:21.628Z,23.02
2019-02-22T19:41:50.538Z,23.47
2019-02-22T19:44:19.145Z,19.77
2019-02-22T19:46:47.927Z,16.27
2019-02-22T19:49:16.695Z,27.75
2019-02-22T19:51:45.289Z,34.65
2019-02-22T19:54:13.976Z,32.40
2019-02-22T19:56:42.526Z,33.60
2019-02-22T19:59:11.127Z,34.60
2019-02-22T20:01:39.865Z,18.05
2019-02-22T20:04:08.929Z,10.35
2019-02-22T20:06:37.846Z,9.20
2019-02-22T20:09:06.693Z,9.80
2019-02-22T20:11:36.714Z,9.63
2019-02-22T20:14:05.447Z,9.18
2019-02-22T20:16:34.062Z,9.73
2019-02-22T20:19:03.093Z,10.50
2019-02-22T20:21:32.022Z,13.68
2019-02-22T20:24:00.768Z,21.25
2019-02-22T20:26:30.775Z,31.55
2019-02-22T20:28:59.735Z,37.35
2019-02-22T20:31:29.695Z,27.27
2019-02-22T20:33:58.501Z,24.15
2019-02-22T20:36:28.643Z,23.60
2019-02-22T20:38:57.631Z,21.55
2019-02-22T20:41:26.481Z,18.25
2019-02-22T20:43:55.174Z,17.73
2019-02-22T20:46:23.865Z,19.17
2019-02-22T20:49:00.909Z,20.37
2019-02-22T20:51:24.405Z,21.30
2019-02-22T20:53:52.958Z,22.87
2019-02-22T20:56:21.607Z,22.75
2019-02-22T20:58:50.203Z,23.80
2019-02-22T21:01:18.784Z,29.02
2019-02-22T21:06:33.181Z,22.32
2019-02-22T21:09:01.757Z,22.93
2019-02-22T21:11:31.895Z,23.85
2019-02-22T21:14:00.476Z,17.50
2019-02-22T21:16:29.190Z,22.35
2019-02-22T21:18:57.945Z,25.23
2019-02-22T21:21:26.505Z,21.73
2019-02-22T21:23:55.115Z,21.12
2019-02-22T21:26:23.754Z,20.12
2019-02-22T21:28:52.447Z,17.52
2019-02-22T21:31:21.247Z,19.25
2019-02-22T21:33:52.435Z,18.92
2019-02-22T21:36:22.156Z,20.75
2019-02-22T21:38:51.096Z,25.80
2019-02-22T21:41:19.966Z,21.73
2019-02-22T21:43:48.585Z,19.25
2019-02-22T21:46:18.335Z,20.75
2019-02-22T21:48:47.214Z,19.25
2019-02-22T21:51:15.876Z,19.82
2019-02-22T21:53:44.737Z,24.12
2019-02-22T21:56:13.292Z,31.90
2019-02-22T21:58:41.928Z,28.17
2019-02-22T22:01:10.546Z,32.60
2019-02-22T22:03:39.223Z,30.90
2019-02-22T22:06:07.924Z,23.45
2019-02-22T22:08:36.845Z,45.40
2019-02-22T22:11:05.548Z,41.40
2019-02-22T22:13:34.293Z,39.67
2019-02-22T22:16:02.915Z,39.60
2019-02-22T22:18:38.873Z,39.95
2019-02-22T22:21:02.117Z,40.00
2019-02-22T22:23:30.826Z,41.18
2019-02-22T22:25:59.449Z,43.63
2019-02-22T22:28:28.307Z,45.05
2019-02-22T22:30:57.394Z,46.73
2019-02-22T22:33:25.976Z,40.23
2019-02-22T22:35:54.714Z,42.13
2019-02-22T22:38:23.428Z,40.23
2019-02-22T22:40:52.144Z,38.17
2019-02-22T22:43:21.175Z,30.60
2019-02-22T22:45:50.207Z,37.80
2019-02-22T22:48:18.791Z,38.37
2019-02-22T22:50:47.607Z,38.67
2019-02-22T22:53:16.232Z,28.92
2019-02-22T22:55:45.078Z,30.68
2019-02-22T22:58:13.685Z,27.90
2019-02-22T23:00:51.213Z,30.43
2019-02-22T23:03:21.018Z,32.40
2019-02-22T23:05:49.806Z,32.93
2019-02-22T23:08:18.876Z,33.60
2019-02-22T23:10:48.676Z,28.12
2019-02-22T23:13:17.546Z,22.90
2019-02-22T23:15:46.534Z,23.30
2019-02-22T23:18:15.392Z,25.33
2019-02-22T23:20:44.094Z,22.20
2019-02-22T23:23:12.798Z,20.35
2019-02-22T23:25:41.435Z,20.87
2019-02-22T23:28:10.203Z,19.40
2019-02-22T23:30:38.766Z,19.77
2019-02-22T23:33:07.818Z,20.07
2019-02-22T23:35:36.439Z,20.20
2019-02-22T23:38:05.998Z,20.97
2019-02-22T23:40:34.969Z,25.43
2019-02-22T23:43:03.595Z,25.33
2019-02-22T23:45:32.408Z,23.43
2019-02-22T23:48:01.244Z,20.45
2019-02-22T23:50:30.151Z,18.73
2019-02-22T23:52:59.079Z,14.80
2019-02-22T23:55:27.935Z,14.37
2019-02-22T23:57:56.556Z,16.17
